createdAt,value
2019-05-20T00:00:21.818Z,9.60
2019-05-20T00:02:49.359Z,7.80
2019-05-20T00:05:16.385Z,8.13
2019-05-20T00:07:43.655Z,8.93
2019-05-20T00:10:11.033Z,8.60
2019-05-20T00:12:38.233Z,8.47
2019-05-20T00:15:05.572Z,8.00
2019-05-20T00:17:32.708Z,9.13
2019-05-20T00:19:59.798Z,9.17
2019-05-20T00:22:26.877Z,10.83
2019-05-20T00:24:53.932Z,9.43
2019-05-20T00:27:21.097Z,9.13
2019-05-20T00:29:48.679Z,9.70
2019-05-20T00:32:16.845Z,10.30
2019-05-20T00:34:43.851Z,9.80
2019-05-20T00:37:11.014Z,9.23
2019-05-20T00:39:38.475Z,9.87
2019-05-20T00:42:05.738Z,9.93
2019-05-20T00:44:32.992Z,10.70
2019-05-20T00:47:00.345Z,10.37
2019-05-20T00:49:27.438Z,13.67
2019-05-20T00:51:54.657Z,13.67
2019-05-20T00:54:21.922Z,12.20
2019-05-20T00:56:51.312Z,12.73
2019-05-20T00:59:18.475Z,12.73
2019-05-20T01:01:45.956Z,12.73
2019-05-20T01:04:13.072Z,13.20
2019-05-20T01:06:40.131Z,14.50
2019-05-20T01:09:07.456Z,11.90
2019-05-20T01:11:34.684Z,12.33
2019-05-20T01:14:01.907Z,11.63
2019-05-20T01:16:29.038Z,12.57
2019-05-20T01:18:56.301Z,12.73
2019-05-20T01:21:23.346Z,14.30
2019-05-20T01:23:50.672Z,14.77
2019-05-20T01:26:17.954Z,14.77
2019-05-20T01:28:45.301Z,15.13
2019-05-20T01:31:12.620Z,14.57
2019-05-20T01:33:39.798Z,14.87
2019-05-20T01:36:07.981Z,14.17
2019-05-20T01:38:35.111Z,18.03
2019-05-20T01:41:02.744Z,15.43
2019-05-20T01:43:30.029Z,16.77
2019-05-20T01:45:57.210Z,17.10
2019-05-20T01:48:24.849Z,17.80
2019-05-20T01:50:52.022Z,19.73
2019-05-20T01:53:19.249Z,20.53
2019-05-20T01:55:46.545Z,17.40
2019-05-20T01:58:13.609Z,17.37
2019-05-20T02:00:40.752Z,23.70
2019-05-20T02:03:07.717Z,21.53
2019-05-20T02:05:34.640Z,20.37
2019-05-20T02:08:01.557Z,19.27
2019-05-20T02:10:28.544Z,19.83
2019-05-20T02:12:55.545Z,20.47
2019-05-20T02:15:29.366Z,22.00
2019-05-20T02:17:56.277Z,20.60
2019-05-20T02:20:23.173Z,19.47
2019-05-20T02:22:50.035Z,23.37
2019-05-20T02:25:17.158Z,20.63
2019-05-20T02:27:44.001Z,19.70
2019-05-20T02:30:11.685Z,22.87
2019-05-20T02:32:38.887Z,17.80
2019-05-20T02:35:06.127Z,19.53
2019-05-20T02:37:33.438Z,18.57
2019-05-20T02:40:00.530Z,18.77
2019-05-20T02:42:27.541Z,20.40
2019-05-20T02:44:54.626Z,18.50
2019-05-20T02:47:21.955Z,18.57
2019-05-20T02:49:48.858Z,17.63
2019-05-20T02:52:15.828Z,17.27
2019-05-20T02:54:43.044Z,17.43
2019-05-20T02:57:10.134Z,23.27
2019-05-20T02:59:37.019Z,20.03
2019-05-20T03:02:04.322Z,22.47
2019-05-20T03:04:32.235Z,22.63
2019-05-20T03:06:59.110Z,21.97
2019-05-20T03:09:26.074Z,27.47
2019-05-20T03:11:53.108Z,15.83
2019-05-20T03:14:20.106Z,16.77
2019-05-20T03:16:49.242Z,19.47
2019-05-20T03:19:16.112Z,19.27
2019-05-20T03:21:43.160Z,17.97
2019-05-20T03:24:10.019Z,20.27
2019-05-20T03:26:36.927Z,18.30
2019-05-20T03:29:04.294Z,19.33
2019-05-20T03:31:31.156Z,21.33
2019-05-20T03:33:58.422Z,16.70
2019-05-20T03:36:25.376Z,18.13
2019-05-20T03:38:52.307Z,19.13
2019-05-20T03:41:19.185Z,18.10
2019-05-20T03:43:46.086Z,18.03
2019-05-20T03:46:13.068Z,18.40
2019-05-20T03:48:39.934Z,17.20
2019-05-20T03:51:06.883Z,20.77
2019-05-20T03:53:34.805Z,20.47
2019-05-20T03:56:01.779Z,18.90
2019-05-20T03:58:28.675Z,19.83
2019-05-20T04:00:55.705Z,21.90
2019-05-20T04:03:23.038Z,19.37
2019-05-20T04:05:50.027Z,19.13
2019-05-20T04:08:16.896Z,23.37
2019-05-20T04:10:44.337Z,19.67
2019-05-20T04:13:11.500Z,19.77
2019-05-20T04:15:38.552Z,20.97
2019-05-20T04:18:05.624Z,23.00
2019-05-20T04:20:32.552Z,22.57
2019-05-20T04:22:59.557Z,21.23
2019-05-20T04:25:26.450Z,20.33
2019-05-20T04:27:53.657Z,19.37
2019-05-20T04:30:20.685Z,19.83
2019-05-20T04:32:47.668Z,20.17
2019-05-20T04:35:21.984Z,20.60
2019-05-20T04:37:43.582Z,19.87
2019-05-20T04:40:11.119Z,23.30
2019-05-20T04:42:38.245Z,23.10
2019-05-20T04:45:05.750Z,22.33
2019-05-20T04:47:32.751Z,21.37
2019-05-20T04:50:00.937Z,19.03
2019-05-20T04:52:27.806Z,23.63
2019-05-20T04:54:54.705Z,20.27
2019-05-20T04:57:21.605Z,17.67
2019-05-20T04:59:48.616Z,22.23
2019-05-20T05:02:15.557Z,19.27
2019-05-20T05:04:42.459Z,21.93
2019-05-20T05:07:09.472Z,18.83
2019-05-20T05:09:36.434Z,16.90
2019-05-20T05:12:03.518Z,18.83
2019-05-20T05:14:30.407Z,17.87
2019-05-20T05:16:57.486Z,18.67
2019-05-20T05:19:24.476Z,18.43
2019-05-20T05:21:51.540Z,17.27
2019-05-20T05:24:18.614Z,18.07
2019-05-20T05:26:47.803Z,18.83
2019-05-20T05:29:14.290Z,17.60
2019-05-20T05:31:41.731Z,17.13
2019-05-20T05:34:08.697Z,17.77
2019-05-20T05:36:35.681Z,18.40
2019-05-20T05:39:04.784Z,16.27
2019-05-20T05:41:31.660Z,18.03
2019-05-20T05:43:58.601Z,19.00
2019-05-20T05:46:25.626Z,20.27
2019-05-20T05:48:52.927Z,16.30
2019-05-20T05:51:20.021Z,17.40
2019-05-20T05:53:47.302Z,19.30
2019-05-20T05:56:14.686Z,14.97
2019-05-20T05:58:41.895Z,16.80
2019-05-20T06:01:09.322Z,14.57
2019-05-20T06:03:36.494Z,17.03
2019-05-20T06:06:12.024Z,17.00
2019-05-20T06:08:32.811Z,17.63
2019-05-20T06:10:59.821Z,16.63
2019-05-20T06:13:27.166Z,16.63
2019-05-20T06:15:54.717Z,16.27
2019-05-20T06:18:22.063Z,15.77
2019-05-20T06:20:50.261Z,14.40
2019-05-20T06:23:17.462Z,15.90
2019-05-20T06:25:44.537Z,16.13
2019-05-20T06:28:11.679Z,15.73
2019-05-20T06:30:41.384Z,17.80
2019-05-20T06:33:08.761Z,21.20
2019-05-20T06:35:36.510Z,14.63
2019-05-20T06:38:06.657Z,15.77
2019-05-20T06:40:33.757Z,17.60
2019-05-20T06:43:00.946Z,17.27
2019-05-20T06:45:28.082Z,18.30
2019-05-20T06:47:55.657Z,16.07
2019-05-20T06:50:22.764Z,17.70
2019-05-20T06:52:50.811Z,15.70
2019-05-20T06:55:17.937Z,17.23
2019-05-20T06:57:44.930Z,15.70
2019-05-20T07:00:14.240Z,17.27
2019-05-20T07:02:41.761Z,16.27
2019-05-20T07:05:09.405Z,13.43
2019-05-20T07:07:36.631Z,16.23
2019-05-20T07:10:04.544Z,16.47
2019-05-20T07:12:40.524Z,14.17
2019-05-20T07:15:00.761Z,17.70
2019-05-20T07:17:28.081Z,13.07
2019-05-20T07:19:55.378Z,20.17
2019-05-20T07:22:22.632Z,14.43
2019-05-20T07:24:50.003Z,15.60
2019-05-20T07:27:17.389Z,17.10
2019-05-20T07:29:44.540Z,17.37
2019-05-20T07:32:11.885Z,14.70
2019-05-20T07:34:39.025Z,16.43
2019-05-20T07:37:06.082Z,12.17
2019-05-20T07:39:34.143Z,14.13
2019-05-20T07:42:01.753Z,16.37
2019-05-20T07:44:29.019Z,13.17
2019-05-20T07:46:56.169Z,14.37
2019-05-20T07:49:23.534Z,15.40
2019-05-20T07:51:51.158Z,13.40
2019-05-20T07:54:19.356Z,14.60
2019-05-20T07:56:48.403Z,15.03
2019-05-20T07:59:19.401Z,15.43
2019-05-20T08:01:46.574Z,13.97
2019-05-20T08:04:14.207Z,13.90
2019-05-20T08:06:41.398Z,17.27
2019-05-20T08:09:08.402Z,15.23
2019-05-20T08:11:35.626Z,15.87
2019-05-20T08:14:02.764Z,18.80
2019-05-20T08:16:30.057Z,14.23
2019-05-20T08:18:57.042Z,17.03
2019-05-20T08:21:24.255Z,14.63
2019-05-20T08:23:51.260Z,15.93
2019-05-20T08:26:18.467Z,16.30
2019-05-20T08:28:45.364Z,16.77
2019-05-20T08:31:12.448Z,16.07
2019-05-20T08:33:39.619Z,16.10
2019-05-20T08:36:07.120Z,16.33
2019-05-20T08:38:34.275Z,18.43
2019-05-20T08:41:01.181Z,15.43
2019-05-20T08:43:28.145Z,16.57
2019-05-20T08:45:55.166Z,14.30
2019-05-20T08:48:22.182Z,14.70
2019-05-20T08:50:49.309Z,14.03
2019-05-20T08:53:16.389Z,15.13
2019-05-20T08:55:43.279Z,15.43
2019-05-20T08:58:10.422Z,13.17
2019-05-20T09:00:37.483Z,15.80
2019-05-20T09:03:04.567Z,17.93
2019-05-20T09:05:31.610Z,14.03
2019-05-20T09:08:03.485Z,15.57
2019-05-20T09:10:28.008Z,13.07
2019-05-20T09:12:54.950Z,14.90
2019-05-20T09:15:21.846Z,16.50
2019-05-20T09:17:48.782Z,14.73
2019-05-20T09:20:16.005Z,17.90
2019-05-20T09:22:42.929Z,16.23
2019-05-20T09:25:11.039Z,15.57
2019-05-20T09:27:38.264Z,18.70
2019-05-20T09:30:06.659Z,15.37
2019-05-20T09:32:35.610Z,15.97
2019-05-20T09:35:05.827Z,16.80
2019-05-20T09:37:33.757Z,15.97
2019-05-20T09:40:01.131Z,17.40
2019-05-20T09:42:29.734Z,15.07
2019-05-20T09:44:56.772Z,21.93
2019-05-20T09:47:23.861Z,17.20
2019-05-20T09:49:50.903Z,18.70
2019-05-20T09:52:18.181Z,18.87
2019-05-20T09:54:45.751Z,23.43
2019-05-20T09:57:12.895Z,18.43
2019-05-20T09:59:43.167Z,20.67
2019-05-20T10:02:08.973Z,18.90
2019-05-20T10:04:36.076Z,18.00
2019-05-20T10:07:03.168Z,18.07
2019-05-20T10:09:30.210Z,17.47
2019-05-20T10:11:57.951Z,18.87
2019-05-20T10:14:24.955Z,19.80
2019-05-20T10:16:51.990Z,23.53
2019-05-20T10:19:18.930Z,19.83
2019-05-20T10:21:53.765Z,19.17
2019-05-20T10:24:21.743Z,22.57
2019-05-20T10:26:48.975Z,21.00
2019-05-20T10:29:16.241Z,20.07
2019-05-20T10:31:43.354Z,23.07
2019-05-20T10:34:10.739Z,21.37
2019-05-20T10:36:38.114Z,22.47
2019-05-20T10:39:07.930Z,21.47
2019-05-20T10:41:35.041Z,22.37
2019-05-20T10:44:02.312Z,24.27
2019-05-20T10:46:29.558Z,22.33
2019-05-20T10:48:56.855Z,21.07
2019-05-20T10:51:24.180Z,22.60
2019-05-20T10:53:51.547Z,22.83
2019-05-20T10:56:18.813Z,22.83
2019-05-20T10:58:46.112Z,24.57
2019-05-20T11:01:14.014Z,28.03
2019-05-20T11:03:41.557Z,27.77
2019-05-20T11:06:08.680Z,23.70
2019-05-20T11:08:35.881Z,31.57
2019-05-20T11:11:03.387Z,27.23
2019-05-20T11:13:30.748Z,25.77
2019-05-20T11:15:58.347Z,24.30
2019-05-20T11:18:25.878Z,26.43
2019-05-20T11:20:53.282Z,24.10
2019-05-20T11:23:20.600Z,24.13
2019-05-20T11:25:48.194Z,27.23
2019-05-20T11:28:15.528Z,29.17
2019-05-20T11:30:42.674Z,29.37
2019-05-20T11:33:10.013Z,32.93
2019-05-20T11:35:37.299Z,30.27
2019-05-20T11:38:04.609Z,30.57
2019-05-20T11:40:31.884Z,31.70
2019-05-20T11:42:59.152Z,37.30
2019-05-20T11:45:26.347Z,34.90
2019-05-20T11:47:53.678Z,32.83
2019-05-20T11:50:21.017Z,32.70
2019-05-20T11:52:48.252Z,37.83
2019-05-20T11:55:15.779Z,32.23
2019-05-20T11:57:43.008Z,34.80
2019-05-20T12:00:10.863Z,31.30
2019-05-20T12:02:39.447Z,36.83
2019-05-20T12:05:07.323Z,35.83
2019-05-20T12:07:34.676Z,33.90
2019-05-20T12:10:02.061Z,38.90
2019-05-20T12:12:29.890Z,32.57
2019-05-20T12:14:57.156Z,34.57
2019-05-20T12:17:24.346Z,33.00
2019-05-20T12:19:51.457Z,31.10
2019-05-20T12:22:18.784Z,30.97
2019-05-20T12:24:45.861Z,27.87
2019-05-20T12:27:13.450Z,27.07
2019-05-20T12:29:40.865Z,28.33
2019-05-20T12:32:09.308Z,23.37
2019-05-20T12:34:36.593Z,26.10
2019-05-20T12:37:03.917Z,22.27
2019-05-20T12:39:31.417Z,24.83
2019-05-20T12:41:58.733Z,25.33
2019-05-20T12:44:25.912Z,21.60
2019-05-20T12:46:53.306Z,22.97
2019-05-20T12:49:20.610Z,21.80
2019-05-20T12:51:48.066Z,24.10
2019-05-20T12:54:15.231Z,25.97
2019-05-20T12:56:42.554Z,29.17
2019-05-20T12:59:10.403Z,24.20
2019-05-20T13:01:37.724Z,25.77
2019-05-20T13:04:04.854Z,27.83
2019-05-20T13:06:32.588Z,27.57
2019-05-20T13:08:59.942Z,29.43
2019-05-20T13:11:27.118Z,28.30
2019-05-20T13:13:54.262Z,26.13
2019-05-20T13:16:21.470Z,24.47
2019-05-20T13:18:56.109Z,26.23
2019-05-20T13:21:17.739Z,31.73
2019-05-20T13:23:48.606Z,28.93
2019-05-20T13:26:13.890Z,25.90
2019-05-20T13:28:41.015Z,28.37
2019-05-20T13:31:08.199Z,32.57
2019-05-20T13:33:35.532Z,33.87
2019-05-20T13:36:02.893Z,37.37
2019-05-20T13:38:30.140Z,35.33
2019-05-20T13:40:57.301Z,32.43
2019-05-20T13:43:24.338Z,34.27
2019-05-20T13:45:51.593Z,35.80
2019-05-20T13:48:18.776Z,38.00
2019-05-20T13:50:45.995Z,34.93
2019-05-20T13:53:13.224Z,32.93
2019-05-20T13:55:40.348Z,70.67
2019-05-20T13:58:07.654Z,42.13
2019-05-20T14:00:35.303Z,34.63
2019-05-20T14:03:02.471Z,35.63
2019-05-20T14:05:29.716Z,34.10
2019-05-20T14:07:56.896Z,36.10
2019-05-20T14:10:24.128Z,33.37
2019-05-20T14:12:51.807Z,31.30
2019-05-20T14:15:19.078Z,29.70
2019-05-20T14:17:46.566Z,30.13
2019-05-20T14:20:14.260Z,33.53
2019-05-20T14:22:41.531Z,34.90
2019-05-20T14:25:09.320Z,38.83
2019-05-20T14:27:36.708Z,37.23
2019-05-20T14:30:04.969Z,33.17
2019-05-20T14:32:32.509Z,36.43
2019-05-20T14:34:59.650Z,28.90
2019-05-20T14:37:26.880Z,30.97
2019-05-20T14:39:54.135Z,31.53
2019-05-20T14:42:25.105Z,33.23
2019-05-20T14:44:50.366Z,38.70
2019-05-20T14:47:17.667Z,32.73
2019-05-20T14:49:44.958Z,31.63
2019-05-20T14:52:12.190Z,31.77
2019-05-20T14:54:39.334Z,27.93
2019-05-20T14:57:06.954Z,28.00
2019-05-20T14:59:34.187Z,32.30
2019-05-20T15:02:01.434Z,27.97
2019-05-20T15:04:28.626Z,27.43
2019-05-20T15:06:55.650Z,25.93
2019-05-20T15:09:22.701Z,26.10
2019-05-20T15:11:49.913Z,26.77
2019-05-20T15:14:17.199Z,26.57
2019-05-20T15:16:44.378Z,25.73
2019-05-20T15:19:11.678Z,24.60
2019-05-20T15:21:39.048Z,32.50
2019-05-20T15:24:06.577Z,31.10
2019-05-20T15:26:33.846Z,30.73
2019-05-20T15:29:01.079Z,28.80
2019-05-20T15:31:28.184Z,27.10
2019-05-20T15:33:55.331Z,26.83
2019-05-20T15:36:22.494Z,26.80
2019-05-20T15:38:50.844Z,25.50
2019-05-20T15:41:18.197Z,29.50
2019-05-20T15:43:45.407Z,25.17
2019-05-20T15:46:12.803Z,26.77
2019-05-20T15:48:40.054Z,25.53
2019-05-20T15:51:07.347Z,29.37
2019-05-20T15:53:34.560Z,26.97
2019-05-20T15:56:01.636Z,24.30
2019-05-20T15:58:28.891Z,26.77
2019-05-20T16:00:56.141Z,31.07
2019-05-20T16:03:23.433Z,30.17
2019-05-20T16:05:50.857Z,24.10
2019-05-20T16:08:18.214Z,24.30
2019-05-20T16:10:45.576Z,30.47
2019-05-20T16:13:12.692Z,30.50
2019-05-20T16:15:39.940Z,27.57
2019-05-20T16:18:07.190Z,29.00
2019-05-20T16:20:34.746Z,26.07
2019-05-20T16:23:02.188Z,25.67
2019-05-20T16:25:29.622Z,32.13
2019-05-20T16:27:57.007Z,29.77
2019-05-20T16:30:24.463Z,28.93
2019-05-20T16:32:51.772Z,28.20
2019-05-20T16:35:18.953Z,24.33
2019-05-20T16:37:46.198Z,24.93
2019-05-20T16:40:13.621Z,27.80
2019-05-20T16:42:40.961Z,26.73
2019-05-20T16:45:11.962Z,23.00
2019-05-20T16:47:38.299Z,25.40
2019-05-20T16:50:06.709Z,24.00
2019-05-20T16:52:35.079Z,26.90
2019-05-20T16:55:02.459Z,23.77
2019-05-20T16:57:29.630Z,25.07
2019-05-20T16:59:57.406Z,23.37
2019-05-20T17:02:25.085Z,25.37
2019-05-20T17:04:52.227Z,21.37
2019-05-20T17:07:19.958Z,19.10
2019-05-20T17:09:47.259Z,22.37
2019-05-20T17:12:14.774Z,20.87
2019-05-20T17:14:42.146Z,23.00
2019-05-20T17:17:09.491Z,25.27
2019-05-20T17:19:36.820Z,21.53
2019-05-20T17:22:04.703Z,21.77
2019-05-20T17:24:31.896Z,23.07
2019-05-20T17:26:59.190Z,24.13
2019-05-20T17:29:26.662Z,21.37
2019-05-20T17:31:53.845Z,22.37
2019-05-20T17:34:22.456Z,25.80
2019-05-20T17:36:49.802Z,22.60
2019-05-20T17:39:17.082Z,19.83
2019-05-20T17:41:44.540Z,21.20
2019-05-20T17:44:12.274Z,21.67
2019-05-20T17:46:39.582Z,20.40
2019-05-20T17:49:06.956Z,20.57
2019-05-20T17:51:34.653Z,21.63
2019-05-20T17:54:02.045Z,19.83
2019-05-20T17:56:29.329Z,21.10
2019-05-20T17:58:56.671Z,20.17
2019-05-20T18:01:24.085Z,19.10
2019-05-20T18:03:51.414Z,19.87
2019-05-20T18:06:18.644Z,21.57
2019-05-20T18:08:48.799Z,18.60
2019-05-20T18:11:19.119Z,19.20
2019-05-20T18:13:45.912Z,19.07
2019-05-20T18:16:13.254Z,21.07
2019-05-20T18:18:40.504Z,19.33
2019-05-20T18:21:07.671Z,17.67
2019-05-20T18:23:34.916Z,18.10
2019-05-20T18:26:03.668Z,18.47
2019-05-20T18:28:31.231Z,18.80
2019-05-20T18:30:58.500Z,17.77
2019-05-20T18:33:25.878Z,15.17
2019-05-20T18:35:53.129Z,20.87
2019-05-20T18:38:20.359Z,18.13
2019-05-20T18:40:47.783Z,18.77
2019-05-20T18:43:15.181Z,21.30
2019-05-20T18:45:43.746Z,19.40
2019-05-20T18:48:11.289Z,19.77
2019-05-20T18:50:38.315Z,18.33
2019-05-20T18:53:05.684Z,19.03
2019-05-20T18:55:34.952Z,19.73
2019-05-20T18:58:02.456Z,22.40
2019-05-20T19:00:29.977Z,22.00
2019-05-20T19:02:57.262Z,19.27
2019-05-20T19:05:24.631Z,23.63
2019-05-20T19:07:52.184Z,21.87
2019-05-20T19:10:19.545Z,22.47
2019-05-20T19:12:47.015Z,23.20
2019-05-20T19:15:15.428Z,24.17
2019-05-20T19:17:43.350Z,25.77
2019-05-20T19:20:11.258Z,27.50
2019-05-20T19:22:38.620Z,25.43
2019-05-20T19:25:07.007Z,23.53
2019-05-20T19:27:34.534Z,25.80
2019-05-20T19:30:02.080Z,25.13
2019-05-20T19:32:29.715Z,27.00
2019-05-20T19:34:57.110Z,30.30
2019-05-20T19:37:24.644Z,23.40
2019-05-20T19:39:52.027Z,25.40
2019-05-20T19:42:19.337Z,23.20
2019-05-20T19:44:46.508Z,27.67
2019-05-20T19:47:13.845Z,24.17
2019-05-20T19:49:42.588Z,28.60
2019-05-20T19:52:10.400Z,25.97
2019-05-20T19:54:37.686Z,26.10
2019-05-20T19:57:06.137Z,26.57
2019-05-20T19:59:33.144Z,24.70
2019-05-20T20:02:00.241Z,24.33
2019-05-20T20:04:27.143Z,26.43
2019-05-20T20:06:54.046Z,23.97
2019-05-20T20:09:21.013Z,22.97
2019-05-20T20:11:48.497Z,24.63
2019-05-20T20:14:15.346Z,24.50
2019-05-20T20:16:42.355Z,27.90
2019-05-20T20:19:09.229Z,32.23
2019-05-20T20:21:36.157Z,29.60
2019-05-20T20:24:03.230Z,26.70
2019-05-20T20:26:31.117Z,27.43
2019-05-20T20:28:57.996Z,28.13
2019-05-20T20:31:24.973Z,33.70
2019-05-20T20:33:51.840Z,33.13
2019-05-20T20:36:21.305Z,27.00
2019-05-20T20:38:47.489Z,30.20
2019-05-20T20:41:14.464Z,32.00
2019-05-20T20:43:41.359Z,30.67
2019-05-20T20:46:08.464Z,32.40
2019-05-20T20:48:35.422Z,31.13
2019-05-20T20:51:02.675Z,31.10
2019-05-20T20:53:29.629Z,33.47
2019-05-20T20:55:56.527Z,33.13
2019-05-20T20:58:23.465Z,31.60
2019-05-20T21:00:50.402Z,29.73
2019-05-20T21:03:17.327Z,33.50
2019-05-20T21:05:44.255Z,28.80
2019-05-20T21:08:11.227Z,27.77
2019-05-20T21:10:38.106Z,29.13
2019-05-20T21:13:05.021Z,29.47
2019-05-20T21:15:32.106Z,27.70
2019-05-20T21:17:59.070Z,27.03
2019-05-20T21:20:25.985Z,30.57
2019-05-20T21:22:52.992Z,23.50
2019-05-20T21:25:19.982Z,21.27
2019-05-20T21:27:47.374Z,28.00
2019-05-20T21:30:16.463Z,20.93
2019-05-20T21:32:43.458Z,19.73
2019-05-20T21:35:10.671Z,20.37
2019-05-20T21:37:37.894Z,20.57
2019-05-20T21:40:05.406Z,17.77
2019-05-20T21:42:32.556Z,18.13
2019-05-20T21:44:59.651Z,15.33
2019-05-20T21:47:26.814Z,17.07
2019-05-20T21:49:53.793Z,14.70
2019-05-20T21:52:21.130Z,15.33
2019-05-20T21:54:48.227Z,18.33
2019-05-20T21:57:15.244Z,19.13
2019-05-20T21:59:42.360Z,17.23
2019-05-20T22:02:09.575Z,17.60
2019-05-20T22:04:36.865Z,18.13
2019-05-20T22:07:04.152Z,20.40
2019-05-20T22:09:31.662Z,17.77
2019-05-20T22:11:59.010Z,18.47
2019-05-20T22:14:26.431Z,17.43
2019-05-20T22:16:53.673Z,16.73
2019-05-20T22:19:21.393Z,16.70
2019-05-20T22:21:54.973Z,18.83
2019-05-20T22:24:22.418Z,21.90
2019-05-20T22:26:49.499Z,17.50
2019-05-20T22:29:16.618Z,17.53
2019-05-20T22:31:43.716Z,18.93
2019-05-20T22:34:10.879Z,18.67
2019-05-20T22:36:38.167Z,21.67
2019-05-20T22:39:06.646Z,20.90
2019-05-20T22:41:33.999Z,18.13
2019-05-20T22:44:01.358Z,21.07
2019-05-20T22:46:28.616Z,19.67
2019-05-20T22:48:55.930Z,19.30
2019-05-20T22:51:22.955Z,22.63
2019-05-20T22:53:50.155Z,16.87
2019-05-20T22:56:17.244Z,18.80
2019-05-20T22:58:45.386Z,18.00
2019-05-20T23:01:12.550Z,17.50
2019-05-20T23:03:39.928Z,20.70
2019-05-20T23:06:07.274Z,14.97
2019-05-20T23:08:34.614Z,20.13
2019-05-20T23:11:01.907Z,17.27
2019-05-20T23:13:28.999Z,16.03
2019-05-20T23:15:56.162Z,15.07
2019-05-20T23:18:23.429Z,15.60
2019-05-20T23:20:51.771Z,13.57
2019-05-20T23:23:19.254Z,14.70
2019-05-20T23:25:46.535Z,14.67
2019-05-20T23:28:13.915Z,14.40
2019-05-20T23:30:41.237Z,14.07
2019-05-20T23:33:08.429Z,14.13
2019-05-20T23:35:35.627Z,12.03
2019-05-20T23:38:02.973Z,14.27
2019-05-20T23:40:30.500Z,14.53
2019-05-20T23:42:57.677Z,11.70
2019-05-20T23:45:24.968Z,10.50
2019-05-20T23:47:52.311Z,11.37
2019-05-20T23:50:19.574Z,11.30
2019-05-20T23:52:46.981Z,15.73
2019-05-20T23:55:14.340Z,9.33
2019-05-20T23:57:41.406Z,10.10
